sensor_id;sensor_type;location;lat;lon;timestamp;temperature;humidity
61386;DHT22;47256;18.904;-99.054;2023-08-06T00:02:12;23.00;99.90
61386;DHT22;47256;18.904;-99.054;2023-08-06T00:04:39;22.90;99.90
61386;DHT22;47256;18.904;-99.054;2023-08-06T00:07:07;22.80;99.90
61386;DHT22;47256;18.904;-99.054;2023-08-06T00:09:34;22.80;99.90
61386;DHT22;47256;18.904;-99.054;2023-08-06T00:12:01;22.80;99.90
61386;DHT22;47256;18.904;-99.054;2023-08-06T00:14:29;22.90;99.90
61386;DHT22;47256;18.904;-99.054;2023-08-06T00:16:56;22.90;99.90
61386;DHT22;47256;18.904;-99.054;2023-08-06T00:19:23;22.90;99.90
61386;DHT22;47256;18.904;-99.054;2023-08-06T00:21:50;22.90;99.90
61386;DHT22;47256;18.904;-99.054;2023-08-06T00:24:18;22.90;99.90
61386;DHT22;47256;18.904;-99.054;2023-08-06T00:26:45;22.90;99.90
61386;DHT22;47256;18.904;-99.054;2023-08-06T00:29:12;22.80;99.90
61386;DHT22;47256;18.904;-99.054;2023-08-06T00:31:39;22.80;99.90
61386;DHT22;47256;18.904;-99.054;2023-08-06T00:34:07;22.80;99.90
61386;DHT22;47256;18.904;-99.054;2023-08-06T00:36:34;22.80;99.90
61386;DHT22;47256;18.904;-99.054;2023-08-06T00:39:01;22.90;99.90
61386;DHT22;47256;18.904;-99.054;2023-08-06T00:41:29;23.10;99.90
61386;DHT22;47256;18.904;-99.054;2023-08-06T00:43:56;23.20;99.90
61386;DHT22;47256;18.904;-99.054;2023-08-06T00:46:23;23.40;99.90
61386;DHT22;47256;18.904;-99.054;2023-08-06T00:48:51;23.50;99.90
61386;DHT22;47256;18.904;-99.054;2023-08-06T00:51:19;23.50;99.90
61386;DHT22;47256;18.904;-99.054;2023-08-06T00:53:47;23.50;99.90
61386;DHT22;47256;18.904;-99.054;2023-08-06T00:56:15;23.40;99.90
61386;DHT22;47256;18.904;-99.054;2023-08-06T00:58:43;23.20;99.90
61386;DHT22;47256;18.904;-99.054;2023-08-06T01:01:11;23.10;99.90
61386;DHT22;47256;18.904;-99.054;2023-08-06T01:03:38;23.00;99.90
61386;DHT22;47256;18.904;-99.054;2023-08-06T01:06:06;22.90;99.90
61386;DHT22;47256;18.904;-99.054;2023-08-06T01:13:46;22.70;99.90
61386;DHT22;47256;18.904;-99.054;2023-08-06T01:16:17;22.90;99.90
61386;DHT22;47256;18.904;-99.054;2023-08-06T01:18:48;23.00;99.90
61386;DHT22;47256;18.904;-99.054;2023-08-06T01:21:16;23.20;99.90
61386;DHT22;47256;18.904;-99.054;2023-08-06T01:23:44;23.40;99.90
61386;DHT22;47256;18.904;-99.054;2023-08-06T01:26:29;23.40;99.90
61386;DHT22;47256;18.904;-99.054;2023-08-06T01:31:43;23.30;99.90
61386;DHT22;47256;18.904;-99.054;2023-08-06T01:34:16;23.40;99.90
61386;DHT22;47256;18.904;-99.054;2023-08-06T01:36:45;23.40;99.90
61386;DHT22;47256;18.904;-99.054;2023-08-06T01:39:13;23.50;99.90
61386;DHT22;47256;18.904;-99.054;2023-08-06T01:41:40;23.60;99.90
61386;DHT22;47256;18.904;-99.054;2023-08-06T01:44:08;23.60;99.90
61386;DHT22;47256;18.904;-99.054;2023-08-06T01:46:35;23.70;99.90
61386;DHT22;47256;18.904;-99.054;2023-08-06T01:49:02;23.80;99.90
61386;DHT22;47256;18.904;-99.054;2023-08-06T01:51:29;23.80;99.90
61386;DHT22;47256;18.904;-99.054;2023-08-06T01:53:56;23.80;99.90
61386;DHT22;47256;18.904;-99.054;2023-08-06T01:56:24;23.80;99.90
61386;DHT22;47256;18.904;-99.054;2023-08-06T01:58:51;23.80;99.90
61386;DHT22;47256;18.904;-99.054;2023-08-06T02:01:18;23.80;99.90
61386;DHT22;47256;18.904;-99.054;2023-08-06T02:03:45;23.80;99.90
61386;DHT22;47256;18.904;-99.054;2023-08-06T02:06:13;23.80;99.90
61386;DHT22;47256;18.904;-99.054;2023-08-06T02:08:40;23.80;99.90
61386;DHT22;47256;18.904;-99.054;2023-08-06T02:11:07;23.80;99.90
61386;DHT22;47256;18.904;-99.054;2023-08-06T02:13:34;23.80;99.90
61386;DHT22;47256;18.904;-99.054;2023-08-06T02:16:02;23.80;99.90
61386;DHT22;47256;18.904;-99.054;2023-08-06T02:18:29;23.80;99.90
61386;DHT22;47256;18.904;-99.054;2023-08-06T02:20:57;23.80;99.90
61386;DHT22;47256;18.904;-99.054;2023-08-06T02:23:25;23.80;99.90
61386;DHT22;47256;18.904;-99.054;2023-08-06T02:26:03;23.70;99.90
61386;DHT22;47256;18.904;-99.054;2023-08-06T02:28:31;23.70;99.90
61386;DHT22;47256;18.904;-99.054;2023-08-06T02:30:58;23.70;99.90
61386;DHT22;47256;18.904;-99.054;2023-08-06T02:33:26;23.70;99.90
61386;DHT22;47256;18.904;-99.054;2023-08-06T02:36:03;23.60;99.90
61386;DHT22;47256;18.904;-99.054;2023-08-06T02:38:32;23.60;99.90
61386;DHT22;47256;18.904;-99.054;2023-08-06T02:41:01;23.70;99.90
61386;DHT22;47256;18.904;-99.054;2023-08-06T02:43:29;23.60;99.90
61386;DHT22;47256;18.904;-99.054;2023-08-06T02:46:02;23.60;99.90
61386;DHT22;47256;18.904;-99.054;2023-08-06T02:48:30;23.50;99.90
61386;DHT22;47256;18.904;-99.054;2023-08-06T02:50:58;23.50;99.90
61386;DHT22;47256;18.904;-99.054;2023-08-06T02:53:30;23.50;99.90
61386;DHT22;47256;18.904;-99.054;2023-08-06T02:56:01;23.50;99.90
61386;DHT22;47256;18.904;-99.054;2023-08-06T02:58:37;23.50;99.90
61386;DHT22;47256;18.904;-99.054;2023-08-06T03:01:24;23.50;99.90
61386;DHT22;47256;18.904;-99.054;2023-08-06T03:03:57;23.60;99.90
61386;DHT22;47256;18.904;-99.054;2023-08-06T03:06:31;23.50;99.90
61386;DHT22;47256;18.904;-99.054;2023-08-06T03:09:00;23.50;99.90
61386;DHT22;47256;18.904;-99.054;2023-08-06T03:11:28;23.30;99.90
61386;DHT22;47256;18.904;-99.054;2023-08-06T03:14:01;23.30;99.90
61386;DHT22;47256;18.904;-99.054;2023-08-06T03:16:30;23.30;99.90
61386;DHT22;47256;18.904;-99.054;2023-08-06T03:18:57;23.40;99.90
61386;DHT22;47256;18.904;-99.054;2023-08-06T03:21:25;23.40;99.90
61386;DHT22;47256;18.904;-99.054;2023-08-06T03:23:52;23.40;99.90
61386;DHT22;47256;18.904;-99.054;2023-08-06T03:26:23;23.40;99.90
61386;DHT22;47256;18.904;-99.054;2023-08-06T03:28:52;23.30;99.90
61386;DHT22;47256;18.904;-99.054;2023-08-06T03:31:19;23.40;99.90
61386;DHT22;47256;18.904;-99.054;2023-08-06T03:33:47;23.40;99.90
61386;DHT22;47256;18.904;-99.054;2023-08-06T03:36:16;23.40;99.90
61386;DHT22;47256;18.904;-99.054;2023-08-06T03:38:44;23.40;99.90
61386;DHT22;47256;18.904;-99.054;2023-08-06T03:41:14;23.40;99.90
61386;DHT22;47256;18.904;-99.054;2023-08-06T03:43:41;23.50;99.90
61386;DHT22;47256;18.904;-99.054;2023-08-06T03:46:13;23.50;99.90
61386;DHT22;47256;18.904;-99.054;2023-08-06T03:48:41;23.50;99.90
61386;DHT22;47256;18.904;-99.054;2023-08-06T03:51:08;23.50;99.90
61386;DHT22;47256;18.904;-99.054;2023-08-06T03:53:35;23.50;99.90
61386;DHT22;47256;18.904;-99.054;2023-08-06T03:56:03;23.50;99.90
61386;DHT22;47256;18.904;-99.054;2023-08-06T03:58:32;23.40;99.90
61386;DHT22;47256;18.904;-99.054;2023-08-06T04:01:00;23.30;99.90
61386;DHT22;47256;18.904;-99.054;2023-08-06T04:03:32;23.10;99.90
61386;DHT22;47256;18.904;-99.054;2023-08-06T04:06:02;23.10;99.90
61386;DHT22;47256;18.904;-99.054;2023-08-06T04:08:29;23.10;99.90
61386;DHT22;47256;18.904;-99.054;2023-08-06T04:10:57;23.10;99.90
61386;DHT22;47256;18.904;-99.054;2023-08-06T04:13:24;23.10;99.90
61386;DHT22;47256;18.904;-99.054;2023-08-06T04:15:51;23.10;99.90
61386;DHT22;47256;18.904;-99.054;2023-08-06T04:18:20;23.10;99.90
61386;DHT22;47256;18.904;-99.054;2023-08-06T04:20:48;23.10;99.90
61386;DHT22;47256;18.904;-99.054;2023-08-06T04:23:16;23.10;99.90
61386;DHT22;47256;18.904;-99.054;2023-08-06T04:25:43;23.10;99.90
61386;DHT22;47256;18.904;-99.054;2023-08-06T04:28:10;23.10;99.90
61386;DHT22;47256;18.904;-99.054;2023-08-06T04:30:38;23.10;99.90
61386;DHT22;47256;18.904;-99.054;2023-08-06T04:33:05;23.20;99.90
61386;DHT22;47256;18.904;-99.054;2023-08-06T04:35:34;23.20;99.90
61386;DHT22;47256;18.904;-99.054;2023-08-06T04:38:02;23.20;99.90
61386;DHT22;47256;18.904;-99.054;2023-08-06T04:40:29;23.20;99.90
61386;DHT22;47256;18.904;-99.054;2023-08-06T04:42:56;23.20;99.90
61386;DHT22;47256;18.904;-99.054;2023-08-06T04:45:24;23.20;99.90
61386;DHT22;47256;18.904;-99.054;2023-08-06T04:47:51;23.30;99.90
61386;DHT22;47256;18.904;-99.054;2023-08-06T04:50:22;23.30;99.90
61386;DHT22;47256;18.904;-99.054;2023-08-06T04:52:49;23.30;99.90
61386;DHT22;47256;18.904;-99.054;2023-08-06T04:55:16;23.20;99.90
61386;DHT22;47256;18.904;-99.054;2023-08-06T04:57:43;23.20;99.90
61386;DHT22;47256;18.904;-99.054;2023-08-06T05:00:12;23.20;99.90
61386;DHT22;47256;18.904;-99.054;2023-08-06T05:02:39;23.20;99.90
61386;DHT22;47256;18.904;-99.054;2023-08-06T05:05:07;23.20;99.90
61386;DHT22;47256;18.904;-99.054;2023-08-06T05:07:35;23.20;99.90
61386;DHT22;47256;18.904;-99.054;2023-08-06T05:10:02;23.20;99.90
61386;DHT22;47256;18.904;-99.054;2023-08-06T05:12:31;23.20;99.90
61386;DHT22;47256;18.904;-99.054;2023-08-06T05:14:58;23.20;99.90
61386;DHT22;47256;18.904;-99.054;2023-08-06T05:17:25;23.20;99.90
61386;DHT22;47256;18.904;-99.054;2023-08-06T05:19:53;23.10;99.90
61386;DHT22;47256;18.904;-99.054;2023-08-06T05:22:20;23.10;99.90
61386;DHT22;47256;18.904;-99.054;2023-08-06T05:24:48;23.10;99.90
61386;DHT22;47256;18.904;-99.054;2023-08-06T05:27:15;23.00;99.90
61386;DHT22;47256;18.904;-99.054;2023-08-06T05:29:42;22.70;99.90
61386;DHT22;47256;18.904;-99.054;2023-08-06T05:32:10;22.50;99.90
61386;DHT22;47256;18.904;-99.054;2023-08-06T05:34:37;22.40;99.90
61386;DHT22;47256;18.904;-99.054;2023-08-06T05:37:05;22.30;99.90
61386;DHT22;47256;18.904;-99.054;2023-08-06T05:39:32;22.30;99.90
61386;DHT22;47256;18.904;-99.054;2023-08-06T05:41:59;22.40;99.90
61386;DHT22;47256;18.904;-99.054;2023-08-06T05:44:26;22.40;99.90
61386;DHT22;47256;18.904;-99.054;2023-08-06T05:46:53;22.50;99.90
61386;DHT22;47256;18.904;-99.054;2023-08-06T05:49:20;22.50;99.90
61386;DHT22;47256;18.904;-99.054;2023-08-06T05:51:48;22.60;99.90
61386;DHT22;47256;18.904;-99.054;2023-08-06T05:54:15;22.70;99.90
61386;DHT22;47256;18.904;-99.054;2023-08-06T05:56:42;22.80;99.90
61386;DHT22;47256;18.904;-99.054;2023-08-06T05:59:09;22.80;99.90
61386;DHT22;47256;18.904;-99.054;2023-08-06T06:01:36;22.80;99.90
61386;DHT22;47256;18.904;-99.054;2023-08-06T06:04:04;22.80;99.90
61386;DHT22;47256;18.904;-99.054;2023-08-06T06:06:31;22.80;99.90
61386;DHT22;47256;18.904;-99.054;2023-08-06T06:08:58;22.70;99.90
61386;DHT22;47256;18.904;-99.054;2023-08-06T06:11:25;22.70;99.90
61386;DHT22;47256;18.904;-99.054;2023-08-06T06:13:52;22.70;99.90
61386;DHT22;47256;18.904;-99.054;2023-08-06T06:16:20;22.70;99.90
61386;DHT22;47256;18.904;-99.054;2023-08-06T06:18:47;22.80;99.90
61386;DHT22;47256;18.904;-99.054;2023-08-06T06:21:14;22.80;99.90
61386;DHT22;47256;18.904;-99.054;2023-08-06T06:23:41;22.70;99.90
61386;DHT22;47256;18.904;-99.054;2023-08-06T06:26:09;22.70;99.90
61386;DHT22;47256;18.904;-99.054;2023-08-06T06:28:36;22.80;99.90
61386;DHT22;47256;18.904;-99.054;2023-08-06T06:31:03;22.80;99.90
61386;DHT22;47256;18.904;-99.054;2023-08-06T06:33:31;22.80;99.90
61386;DHT22;47256;18.904;-99.054;2023-08-06T06:35:58;22.80;99.90
61386;DHT22;47256;18.904;-99.054;2023-08-06T06:38:25;22.80;99.90
61386;DHT22;47256;18.904;-99.054;2023-08-06T06:40:56;22.80;99.90
61386;DHT22;47256;18.904;-99.054;2023-08-06T06:43:24;22.70;99.90
61386;DHT22;47256;18.904;-99.054;2023-08-06T06:45:56;22.70;99.90
61386;DHT22;47256;18.904;-99.054;2023-08-06T06:48:32;22.70;99.90
61386;DHT22;47256;18.904;-99.054;2023-08-06T06:51:00;22.70;99.90
61386;DHT22;47256;18.904;-99.054;2023-08-06T06:53:27;22.70;99.90
61386;DHT22;47256;18.904;-99.054;2023-08-06T06:56:12;22.70;99.90
61386;DHT22;47256;18.904;-99.054;2023-08-06T06:58:39;22.70;99.90
61386;DHT22;47256;18.904;-99.054;2023-08-06T07:01:08;22.70;99.90
61386;DHT22;47256;18.904;-99.054;2023-08-06T07:03:37;22.70;99.90
61386;DHT22;47256;18.904;-99.054;2023-08-06T07:06:04;22.70;99.90
61386;DHT22;47256;18.904;-99.054;2023-08-06T07:08:32;22.70;99.90
61386;DHT22;47256;18.904;-99.054;2023-08-06T07:11:03;22.70;99.90
61386;DHT22;47256;18.904;-99.054;2023-08-06T07:13:31;22.70;99.90
61386;DHT22;47256;18.904;-99.054;2023-08-06T07:15:59;22.70;99.90
61386;DHT22;47256;18.904;-99.054;2023-08-06T07:18:26;22.60;99.90
61386;DHT22;47256;18.904;-99.054;2023-08-06T07:20:54;22.60;99.90
61386;DHT22;47256;18.904;-99.054;2023-08-06T07:23:24;22.60;99.90
61386;DHT22;47256;18.904;-99.054;2023-08-06T07:25:52;22.60;99.90
61386;DHT22;47256;18.904;-99.054;2023-08-06T07:28:19;22.60;99.90
61386;DHT22;47256;18.904;-99.054;2023-08-06T07:30:46;22.60;99.90
61386;DHT22;47256;18.904;-99.054;2023-08-06T07:33:14;22.60;99.90
61386;DHT22;47256;18.904;-99.054;2023-08-06T07:35:41;22.60;99.90
61386;DHT22;47256;18.904;-99.054;2023-08-06T07:38:10;22.60;99.90
61386;DHT22;47256;18.904;-99.054;2023-08-06T07:40:38;22.60;99.90
61386;DHT22;47256;18.904;-99.054;2023-08-06T07:43:05;22.60;99.90
61386;DHT22;47256;18.904;-99.054;2023-08-06T07:45:35;22.60;99.90
61386;DHT22;47256;18.904;-99.054;2023-08-06T07:48:03;22.70;99.90
61386;DHT22;47256;18.904;-99.054;2023-08-06T07:50:31;22.70;99.90
61386;DHT22;47256;18.904;-99.054;2023-08-06T07:52:58;22.70;99.90
61386;DHT22;47256;18.904;-99.054;2023-08-06T07:55:26;22.60;99.90
61386;DHT22;47256;18.904;-99.054;2023-08-06T07:57:54;22.60;99.90
61386;DHT22;47256;18.904;-99.054;2023-08-06T08:00:21;22.60;99.90
61386;DHT22;47256;18.904;-99.054;2023-08-06T08:02:48;22.60;99.90
61386;DHT22;47256;18.904;-99.054;2023-08-06T08:05:16;22.60;99.90
61386;DHT22;47256;18.904;-99.054;2023-08-06T08:07:43;22.60;99.90
61386;DHT22;47256;18.904;-99.054;2023-08-06T08:10:10;22.50;99.90
61386;DHT22;47256;18.904;-99.054;2023-08-06T08:12:38;22.50;99.90
61386;DHT22;47256;18.904;-99.054;2023-08-06T08:15:05;22.50;99.90
61386;DHT22;47256;18.904;-99.054;2023-08-06T08:17:33;22.40;99.90
61386;DHT22;47256;18.904;-99.054;2023-08-06T08:20:01;22.40;99.90
61386;DHT22;47256;18.904;-99.054;2023-08-06T08:22:28;22.40;99.90
61386;DHT22;47256;18.904;-99.054;2023-08-06T08:24:55;22.40;99.90
61386;DHT22;47256;18.904;-99.054;2023-08-06T08:27:22;22.50;99.90
61386;DHT22;47256;18.904;-99.054;2023-08-06T08:29:50;22.40;99.90
61386;DHT22;47256;18.904;-99.054;2023-08-06T08:32:17;22.40;99.90
61386;DHT22;47256;18.904;-99.054;2023-08-06T08:34:44;22.40;99.90
61386;DHT22;47256;18.904;-99.054;2023-08-06T08:37:13;22.40;99.90
61386;DHT22;47256;18.904;-99.054;2023-08-06T08:39:40;22.40;99.90
61386;DHT22;47256;18.904;-99.054;2023-08-06T08:42:07;22.40;99.90
61386;DHT22;47256;18.904;-99.054;2023-08-06T08:44:35;22.40;99.90
61386;DHT22;47256;18.904;-99.054;2023-08-06T08:47:06;22.40;99.90
61386;DHT22;47256;18.904;-99.054;2023-08-06T08:49:36;22.30;99.90
61386;DHT22;47256;18.904;-99.054;2023-08-06T08:52:04;22.30;99.90
61386;DHT22;47256;18.904;-99.054;2023-08-06T08:54:38;22.30;99.90
61386;DHT22;47256;18.904;-99.054;2023-08-06T08:57:06;22.30;99.90
61386;DHT22;47256;18.904;-99.054;2023-08-06T08:59:34;22.30;99.90
61386;DHT22;47256;18.904;-99.054;2023-08-06T09:02:02;22.30;99.90
61386;DHT22;47256;18.904;-99.054;2023-08-06T09:04:30;22.30;99.90
61386;DHT22;47256;18.904;-99.054;2023-08-06T09:06:58;22.30;99.90
61386;DHT22;47256;18.904;-99.054;2023-08-06T09:09:30;22.30;99.90
61386;DHT22;47256;18.904;-99.054;2023-08-06T09:12:02;22.30;99.90
61386;DHT22;47256;18.904;-99.054;2023-08-06T09:14:32;22.30;99.90
61386;DHT22;47256;18.904;-99.054;2023-08-06T09:16:59;22.30;99.90
61386;DHT22;47256;18.904;-99.054;2023-08-06T09:19:27;22.30;99.90
61386;DHT22;47256;18.904;-99.054;2023-08-06T09:21:56;22.30;99.90
61386;DHT22;47256;18.904;-99.054;2023-08-06T09:24:24;22.30;99.90
61386;DHT22;47256;18.904;-99.054;2023-08-06T09:26:52;22.20;99.90
61386;DHT22;47256;18.904;-99.054;2023-08-06T09:29:21;22.20;99.90
61386;DHT22;47256;18.904;-99.054;2023-08-06T09:31:49;22.10;99.90
61386;DHT22;47256;18.904;-99.054;2023-08-06T09:34:22;22.10;99.90
61386;DHT22;47256;18.904;-99.054;2023-08-06T09:36:53;22.20;99.90
61386;DHT22;47256;18.904;-99.054;2023-08-06T09:39:28;22.20;99.90
61386;DHT22;47256;18.904;-99.054;2023-08-06T09:42:00;22.20;99.90
61386;DHT22;47256;18.904;-99.054;2023-08-06T09:44:30;22.10;99.90
61386;DHT22;47256;18.904;-99.054;2023-08-06T09:46:59;22.00;99.90
61386;DHT22;47256;18.904;-99.054;2023-08-06T09:49:44;22.00;99.90
61386;DHT22;47256;18.904;-99.054;2023-08-06T09:52:13;21.90;99.90
61386;DHT22;47256;18.904;-99.054;2023-08-06T09:54:43;21.90;99.90
61386;DHT22;47256;18.904;-99.054;2023-08-06T09:57:12;22.00;99.90
61386;DHT22;47256;18.904;-99.054;2023-08-06T09:59:42;22.00;99.90
61386;DHT22;47256;18.904;-99.054;2023-08-06T10:02:13;22.00;99.90
61386;DHT22;47256;18.904;-99.054;2023-08-06T10:04:44;22.00;99.90
61386;DHT22;47256;18.904;-99.054;2023-08-06T10:07:13;22.10;99.90
61386;DHT22;47256;18.904;-99.054;2023-08-06T10:09:40;22.10;99.90
61386;DHT22;47256;18.904;-99.054;2023-08-06T10:12:08;22.10;99.90
61386;DHT22;47256;18.904;-99.054;2023-08-06T10:14:37;22.10;99.90
61386;DHT22;47256;18.904;-99.054;2023-08-06T10:17:05;22.10;99.90
61386;DHT22;47256;18.904;-99.054;2023-08-06T10:19:32;22.10;99.90
61386;DHT22;47256;18.904;-99.054;2023-08-06T10:22:17;22.20;99.90
61386;DHT22;47256;18.904;-99.054;2023-08-06T10:24:49;22.20;99.90
61386;DHT22;47256;18.904;-99.054;2023-08-06T10:27:31;22.20;99.90
61386;DHT22;47256;18.904;-99.054;2023-08-06T10:32:52;22.10;99.90
61386;DHT22;47256;18.904;-99.054;2023-08-06T10:35:40;22.10;99.90
61386;DHT22;47256;18.904;-99.054;2023-08-06T10:38:15;22.10;99.90
61386;DHT22;47256;18.904;-99.054;2023-08-06T10:40:50;22.20;99.90
61386;DHT22;47256;18.904;-99.054;2023-08-06T10:43:33;22.10;99.90
61386;DHT22;47256;18.904;-99.054;2023-08-06T10:46:02;22.10;99.90
61386;DHT22;47256;18.904;-99.054;2023-08-06T10:48:38;22.10;99.90
61386;DHT22;47256;18.904;-99.054;2023-08-06T10:51:10;22.10;99.90
61386;DHT22;47256;18.904;-99.054;2023-08-06T10:53:41;22.10;99.90
61386;DHT22;47256;18.904;-99.054;2023-08-06T10:56:27;22.10;99.90
61386;DHT22;47256;18.904;-99.054;2023-08-06T10:58:55;22.10;99.90
61386;DHT22;47256;18.904;-99.054;2023-08-06T11:01:24;22.10;99.90
61386;DHT22;47256;18.904;-99.054;2023-08-06T11:03:51;22.10;99.90
61386;DHT22;47256;18.904;-99.054;2023-08-06T11:06:21;22.00;99.90
61386;DHT22;47256;18.904;-99.054;2023-08-06T11:08:50;22.00;99.90
61386;DHT22;47256;18.904;-99.054;2023-08-06T11:11:18;22.00;99.90
61386;DHT22;47256;18.904;-99.054;2023-08-06T11:13:47;22.00;99.90
61386;DHT22;47256;18.904;-99.054;2023-08-06T11:16:19;22.00;99.90
61386;DHT22;47256;18.904;-99.054;2023-08-06T11:18:46;22.00;99.90
61386;DHT22;47256;18.904;-99.054;2023-08-06T11:21:14;22.00;99.90
61386;DHT22;47256;18.904;-99.054;2023-08-06T11:23:41;22.00;99.90
61386;DHT22;47256;18.904;-99.054;2023-08-06T11:26:08;22.00;99.90
61386;DHT22;47256;18.904;-99.054;2023-08-06T11:28:36;22.00;99.90
61386;DHT22;47256;18.904;-99.054;2023-08-06T11:31:03;21.90;99.90
61386;DHT22;47256;18.904;-99.054;2023-08-06T11:33:30;21.90;99.90
61386;DHT22;47256;18.904;-99.054;2023-08-06T11:35:59;21.80;99.90
61386;DHT22;47256;18.904;-99.054;2023-08-06T11:38:30;21.80;99.90
61386;DHT22;47256;18.904;-99.054;2023-08-06T11:40:59;21.80;99.90
61386;DHT22;47256;18.904;-99.054;2023-08-06T11:43:29;21.80;99.90
61386;DHT22;47256;18.904;-99.054;2023-08-06T11:45:57;21.80;99.90
61386;DHT22;47256;18.904;-99.054;2023-08-06T11:48:25;21.80;99.90
61386;DHT22;47256;18.904;-99.054;2023-08-06T11:50:55;21.90;99.90
61386;DHT22;47256;18.904;-99.054;2023-08-06T11:53:27;21.90;99.90
61386;DHT22;47256;18.904;-99.054;2023-08-06T11:55:55;21.90;99.90
61386;DHT22;47256;18.904;-99.054;2023-08-06T11:58:23;21.90;99.90
61386;DHT22;47256;18.904;-99.054;2023-08-06T12:00:50;21.90;99.90
61386;DHT22;47256;18.904;-99.054;2023-08-06T12:03:19;21.90;99.90
61386;DHT22;47256;18.904;-99.054;2023-08-06T12:05:47;21.90;99.90
61386;DHT22;47256;18.904;-99.054;2023-08-06T12:08:14;21.90;99.90
61386;DHT22;47256;18.904;-99.054;2023-08-06T12:10:42;21.90;99.90
61386;DHT22;47256;18.904;-99.054;2023-08-06T12:13:09;21.90;99.90
61386;DHT22;47256;18.904;-99.054;2023-08-06T12:15:36;21.90;99.90
61386;DHT22;47256;18.904;-99.054;2023-08-06T12:18:03;21.90;99.90
61386;DHT22;47256;18.904;-99.054;2023-08-06T12:20:30;21.90;99.90
61386;DHT22;47256;18.904;-99.054;2023-08-06T12:22:58;21.90;99.90
61386;DHT22;47256;18.904;-99.054;2023-08-06T12:25:25;21.90;99.90
61386;DHT22;47256;18.904;-99.054;2023-08-06T12:27:52;21.90;99.90
61386;DHT22;47256;18.904;-99.054;2023-08-06T12:30:19;21.90;99.90
61386;DHT22;47256;18.904;-99.054;2023-08-06T12:32:47;21.90;99.90
61386;DHT22;47256;18.904;-99.054;2023-08-06T12:35:14;21.80;99.90
61386;DHT22;47256;18.904;-99.054;2023-08-06T12:37:41;21.90;99.90
61386;DHT22;47256;18.904;-99.054;2023-08-06T12:40:11;21.90;99.90
61386;DHT22;47256;18.904;-99.054;2023-08-06T12:42:38;21.90;99.90
61386;DHT22;47256;18.904;-99.054;2023-08-06T12:45:05;21.90;99.90
61386;DHT22;47256;18.904;-99.054;2023-08-06T12:47:32;21.90;99.90
61386;DHT22;47256;18.904;-99.054;2023-08-06T12:50:00;21.90;99.90
61386;DHT22;47256;18.904;-99.054;2023-08-06T12:52:27;21.80;99.90
61386;DHT22;47256;18.904;-99.054;2023-08-06T12:54:54;21.80;99.90
61386;DHT22;47256;18.904;-99.054;2023-08-06T12:57:21;21.80;99.90
61386;DHT22;47256;18.904;-99.054;2023-08-06T12:59:48;21.80;99.90
61386;DHT22;47256;18.904;-99.054;2023-08-06T13:02:15;21.90;99.90
61386;DHT22;47256;18.904;-99.054;2023-08-06T13:04:42;21.90;99.90
61386;DHT22;47256;18.904;-99.054;2023-08-06T13:07:10;21.90;99.90
61386;DHT22;47256;18.904;-99.054;2023-08-06T13:09:37;21.90;99.90
61386;DHT22;47256;18.904;-99.054;2023-08-06T13:12:04;21.90;99.90
61386;DHT22;47256;18.904;-99.054;2023-08-06T13:14:33;21.80;99.90
61386;DHT22;47256;18.904;-99.054;2023-08-06T13:17:00;21.80;99.90
61386;DHT22;47256;18.904;-99.054;2023-08-06T13:19:28;21.60;99.90
61386;DHT22;47256;18.904;-99.054;2023-08-06T13:22:00;21.60;99.90
61386;DHT22;47256;18.904;-99.054;2023-08-06T13:24:29;21.50;99.90
61386;DHT22;47256;18.904;-99.054;2023-08-06T13:26:56;21.50;99.90
61386;DHT22;47256;18.904;-99.054;2023-08-06T13:29:24;21.50;99.90
61386;DHT22;47256;18.904;-99.054;2023-08-06T13:31:51;21.50;99.90
61386;DHT22;47256;18.904;-99.054;2023-08-06T13:34:18;21.50;99.90
61386;DHT22;47256;18.904;-99.054;2023-08-06T13:36:46;21.50;99.90
61386;DHT22;47256;18.904;-99.054;2023-08-06T13:39:13;21.60;99.90
61386;DHT22;47256;18.904;-99.054;2023-08-06T13:41:43;21.60;99.90
61386;DHT22;47256;18.904;-99.054;2023-08-06T13:44:10;21.60;99.90
61386;DHT22;47256;18.904;-99.054;2023-08-06T13:46:37;21.60;99.90
61386;DHT22;47256;18.904;-99.054;2023-08-06T13:49:05;21.70;99.90
61386;DHT22;47256;18.904;-99.054;2023-08-06T13:51:32;21.70;99.90
61386;DHT22;47256;18.904;-99.054;2023-08-06T13:54:02;21.80;99.90
61386;DHT22;47256;18.904;-99.054;2023-08-06T13:56:29;21.80;99.90
61386;DHT22;47256;18.904;-99.054;2023-08-06T13:58:56;21.80;99.90
61386;DHT22;47256;18.904;-99.054;2023-08-06T14:01:24;21.80;99.90
61386;DHT22;47256;18.904;-99.054;2023-08-06T14:03:51;21.80;99.90
61386;DHT22;47256;18.904;-99.054;2023-08-06T14:06:20;21.80;99.90
61386;DHT22;47256;18.904;-99.054;2023-08-06T14:08:47;21.80;99.90
61386;DHT22;47256;18.904;-99.054;2023-08-06T14:11:14;21.80;99.90
61386;DHT22;47256;18.904;-99.054;2023-08-06T14:13:41;21.80;99.90
61386;DHT22;47256;18.904;-99.054;2023-08-06T14:16:08;21.80;99.90
61386;DHT22;47256;18.904;-99.054;2023-08-06T14:18:35;21.80;99.90
61386;DHT22;47256;18.904;-99.054;2023-08-06T14:21:04;21.80;99.90
61386;DHT22;47256;18.904;-99.054;2023-08-06T14:23:32;21.90;99.90
61386;DHT22;47256;18.904;-99.054;2023-08-06T14:25:59;21.90;99.90
61386;DHT22;47256;18.904;-99.054;2023-08-06T14:28:26;21.90;99.90
61386;DHT22;47256;18.904;-99.054;2023-08-06T14:30:53;21.90;99.90
61386;DHT22;47256;18.904;-99.054;2023-08-06T14:33:20;21.90;99.90
61386;DHT22;47256;18.904;-99.054;2023-08-06T14:35:47;21.90;99.90
61386;DHT22;47256;18.904;-99.054;2023-08-06T14:38:14;22.00;99.90
61386;DHT22;47256;18.904;-99.054;2023-08-06T14:40:43;22.00;99.90
61386;DHT22;47256;18.904;-99.054;2023-08-06T14:43:11;22.00;99.90
61386;DHT22;47256;18.904;-99.054;2023-08-06T14:45:40;22.00;99.90
61386;DHT22;47256;18.904;-99.054;2023-08-06T14:48:07;22.10;99.90
61386;DHT22;47256;18.904;-99.054;2023-08-06T14:50:34;22.10;99.90
61386;DHT22;47256;18.904;-99.054;2023-08-06T14:53:02;22.10;99.90
61386;DHT22;47256;18.904;-99.054;2023-08-06T14:55:29;22.10;99.90
61386;DHT22;47256;18.904;-99.054;2023-08-06T14:57:56;22.20;99.90
61386;DHT22;47256;18.904;-99.054;2023-08-06T15:00:23;22.30;99.90
61386;DHT22;47256;18.904;-99.054;2023-08-06T15:02:50;22.30;99.90
61386;DHT22;47256;18.904;-99.054;2023-08-06T15:05:17;22.20;99.90
61386;DHT22;47256;18.904;-99.054;2023-08-06T15:07:45;22.30;99.90
61386;DHT22;47256;18.904;-99.054;2023-08-06T15:10:13;22.30;99.90
61386;DHT22;47256;18.904;-99.054;2023-08-06T15:12:40;22.30;99.90
61386;DHT22;47256;18.904;-99.054;2023-08-06T15:15:08;22.30;99.90
61386;DHT22;47256;18.904;-99.054;2023-08-06T15:17:35;22.40;99.90
61386;DHT22;47256;18.904;-99.054;2023-08-06T15:20:03;22.40;99.90
61386;DHT22;47256;18.904;-99.054;2023-08-06T15:22:31;22.50;99.90